Cape Lisburne LRRS, AK

3:38 AM AKDT on September 02, 2014 (GMT -0800)
Cape Lisburne LRRS | Change Station
CLOSE
Current Station
Airport
Location: Cape Lisburne,
Elevation: 10 ft
Nearby Weather Stations

Elev 10 ft 68.88 °N, 166.13 °W | Updated 43 minutes ago

Mostly Cloudy
Mostly Cloudy
38 °F
Feels Like 26 °F
N
26
Wind Variable Wind from WNW
Gusts 34 mph

Today
High -- | Low -- °F
--% Chance of Precip.
Yesterday
High -- | Low -- °F
Precip. -- in
7:31 AM 10:34 PM
Waxing Crescent, 50% visible
Pressure 29.62 in
Visibility 10.0 miles
Clouds Mostly Cloudy 3300 ft
Windchill 26 °F
Dew Point 28 °F
Humidity 67%
Rainfall 0.01 in
Snow Depth Not available.
UV 0 out of 12
Pollen Not available.
Air Quality Not available.
Flu Activity Not available.
METAR PALU 021055Z AUTO 30023G30KT 10SM BKN033 03/M02 A2962 RMK AO2 SHRAB1009E1025 SLP029 T00331024

More Conditions Fewer Conditions

Pressure 29.62 in
Visibility 10.0 miles
Clouds Mostly Cloudy 3300 ft
Windchill 26 °F
Dew Point 28 °F
Humidity 67%
Rainfall 0.01 in
Snow Depth Not available.
UV 0 out of 12
Pollen Not available.
Air Quality Not available.
Flu Activity Not available.
METAR PALU 021055Z AUTO 30023G30KT 10SM BKN033 03/M02 A2962 RMK AO2 SHRAB1009E1025 SLP029 T00331024

More Conditions Fewer Conditions

10-Day Weather Forecast

Almanac

Astronomy

Sep. 02, 2014 Rise Set
Actual Time 7:31 AM AKDT 10:34 PM AKDT
Civil Twilight 6:22 AM AKDT 11:41 PM AKDT
Nautical Twilight 4:25 AM AKDT 1:33 AM AKDT
Astronomical Twilight Sun does not rise Sun does not rise
Moon 7:35 PM AKDT 11:33 PM AKDT
Length of Visible Light 17h 18m
Length of Day
15h 03m
Tomorrow will be 8m 23s shorter.
Waxing Crescent, 50% of the Moon is Illuminated
Today
Waxing Crescent
Sep 8
Full
Sep 15
Last Quarter
Sep 24
New
Oct 1
First Quarter

Today's Extremes

State Highs State Lows

Community

WunderPhotos

Upload Photos

1,749,621 photos uploaded!

WunderBlogs® & News

By Dr. Jeff Masters
Director of Meteorology, Weather Underground
By Kari Strenfel
Meteorologist, Weather Underground
By Christopher C. Burt
Weather Historian, Weather Underground
September 2, 2014
September 2, 2014
September 2, 2014

Nearby

Snow Depth

Station Depth Elevation
Rocky Point 4 in 500 ft
Imnaviat Creek 0 in 3050 ft
Atigun Pass 9 in 4800 ft
Coldfoot 1 in 1040 ft
Gobblers Knob 0 in 2030 ft

Earthquake Activity

City Distance Mag. Time & Date
No recent earthquake activity has been reported nearby.
Minimum magnitude displayed is 2.5.

Coastal Water Temperatures

Place Temperature
No Stations Reporting

Nearby Weather Stations